Time;durP1;ratioP1;P1;durP2;ratioP2;P2;SDS_P1;SDS_P2;PMS_P1;PMS_P2;Temp;Humidity;BMP_temperature;BMP_pressure;BME280_temperature;BME280_humidity;BME280_pressure;Samples;Min_cycle;Max_cycle;Signal;HPM_P1;HPM_P2
2022/06/03 00:01:26;;;;;;;8.80;5.50;;;;;;;25.12;51.21;100941.15;106046;1291;61373;-88
2022/06/03 00:04:07;;;;;;;7.30;5.30;;;;;;;25.11;51.38;100941.90;106102;1290;61030;-83
2022/06/03 00:06:43;;;;;;;8.40;5.90;;;;;;;25.11;51.31;100943.17;106091;1290;72668;-87
2022/06/03 00:09:38;;;;;;;7.60;5.20;;;;;;;25.11;51.50;100946.21;106054;1291;75721;-82
2022/06/03 00:12:16;;;;;;;7.50;5.20;;;;;;;25.11;51.37;100942.99;106058;1290;61289;-82
2022/06/03 00:15:05;;;;;;;8.30;5.80;;;;;;;25.11;51.36;100945.89;106099;1290;61423;-83
2022/06/03 00:17:40;;;;;;;7.80;5.60;;;;;;;25.11;51.30;100950.22;106087;1288;72774;-83
2022/06/03 00:20:45;;;;;;;6.80;5.40;;;;;;;25.11;51.55;100955.27;106994;1283;75522;-81
2022/06/03 00:23:54;;;;;;;7.00;5.00;;;;;;;25.10;51.49;100956.39;107246;1283;61398;-82
2022/06/03 00:26:28;;;;;;;6.60;5.20;;;;;;;25.10;51.40;100959.86;107222;1283;61145;-83
2022/06/03 00:29:05;;;;;;;7.60;5.00;;;;;;;25.10;51.30;100956.96;107240;1283;72999;-81
2022/06/03 00:31:47;;;;;;;7.70;5.40;;;;;;;25.10;51.52;100960.37;106851;1284;74825;-83
2022/06/03 00:34:24;;;;;;;8.20;5.20;;;;;;;25.10;51.60;100967.05;106867;1283;61161;-82
2022/06/03 00:37:11;;;;;;;6.60;5.00;;;;;;;25.10;51.61;100970.29;106747;1283;61397;-82
2022/06/03 00:40:01;;;;;;;7.70;5.40;;;;;;;25.10;51.48;100975.84;107107;1283;72745;-82
2022/06/03 00:42:53;;;;;;;9.70;5.60;;;;;;;25.10;51.40;100979.48;107075;1283;75651;-83
2022/06/03 00:45:41;;;;;;;7.80;5.40;;;;;;;25.09;51.68;100983.45;107236;1283;61487;-83
2022/06/03 00:48:16;;;;;;;6.60;5.00;;;;;;;25.10;51.65;100983.98;107217;1283;61351;-81
2022/06/03 00:50:59;;;;;;;7.80;5.00;;;;;;;25.09;51.61;100986.89;107210;1283;73631;-83
2022/06/03 00:53:46;;;;;;;6.50;5.10;;;;;;;25.10;51.44;100988.14;107233;1283;74023;-83
2022/06/03 00:56:30;;;;;;;7.10;5.00;;;;;;;25.09;51.53;100987.44;107227;1283;61288;-81
2022/06/03 00:59:25;;;;;;;6.20;4.90;;;;;;;25.09;51.59;100990.15;106897;1283;61260;-83
2022/06/03 01:02:09;;;;;;;7.20;5.30;;;;;;;25.09;51.60;100992.49;107217;1283;72681;-82
2022/06/03 01:04:41;;;;;;;6.20;5.00;;;;;;;25.09;51.60;100986.23;107226;1283;74594;-81
2022/06/03 01:07:16;;;;;;;6.80;5.50;;;;;;;25.09;51.53;100985.86;106840;1284;61379;-82
2022/06/03 01:10:07;;;;;;;6.70;5.40;;;;;;;25.09;51.60;100982.80;107240;1283;61309;-83
2022/06/03 01:12:43;;;;;;;6.30;5.10;;;;;;;25.09;51.72;100980.66;106869;1283;73269;-82
2022/06/03 01:15:30;;;;;;;6.60;5.00;;;;;;;25.09;51.61;100977.76;106896;1283;75479;-81
2022/06/03 01:18:21;;;;;;;7.30;5.00;;;;;;;25.09;51.57;100978.88;107231;1283;61247;-82
2022/06/03 01:21:05;;;;;;;7.20;4.90;;;;;;;25.09;51.59;100983.37;106851;1283;61401;-81
2022/06/03 01:23:43;;;;;;;7.20;5.30;;;;;;;25.09;51.67;100979.92;107055;1283;71816;-82
2022/06/03 01:26:34;;;;;;;8.50;5.60;;;;;;;25.08;51.73;100977.61;107149;1283;75161;-83
2022/06/03 01:29:33;;;;;;;7.00;5.00;;;;;;;25.08;51.77;100981.03;107245;1283;61208;-81
2022/06/03 01:32:39;;;;;;;6.80;5.00;;;;;;;25.08;51.58;100976.73;106819;1284;61279;-84
2022/06/03 01:35:32;;;;;;;7.00;5.00;;;;;;;25.08;51.65;100974.46;106524;1284;71569;-81
2022/06/03 01:38:02;;;;;;;6.80;5.20;;;;;;;25.07;51.79;100977.87;107062;1282;74577;-81
2022/06/03 01:40:59;;;;;;;6.80;4.90;;;;;;;25.08;51.77;100974.80;106683;1284;61474;-82
2022/06/03 01:43:31;;;;;;;6.90;5.30;;;;;;;25.07;51.72;100976.46;107073;1283;61406;-81
2022/06/03 01:46:29;;;;;;;6.10;5.10;;;;;;;25.07;51.72;100984.94;107226;1283;72641;-81
2022/06/03 01:49:10;;;;;;;7.30;5.20;;;;;;;25.08;51.88;100986.89;107076;1283;75613;-83
2022/06/03 01:51:58;;;;;;;6.00;5.10;;;;;;;25.07;51.67;100989.97;107237;1283;61247;-80
2022/06/03 01:54:41;;;;;;;6.70;4.90;;;;;;;25.06;51.73;100994.17;107220;1283;61633;-81
2022/06/03 01:57:21;;;;;;;7.10;5.10;;;;;;;25.07;51.64;100998.47;107200;1283;73171;-81
2022/06/03 02:00:00;;;;;;;7.10;4.80;;;;;;;25.07;51.75;101005.84;106904;1283;75572;-84
2022/06/03 02:02:51;;;;;;;7.20;4.90;;;;;;;25.07;51.87;101007.07;106971;1284;61492;-82
2022/06/03 02:05:29;;;;;;;7.00;5.20;;;;;;;25.06;51.74;101008.77;106878;1283;61250;-84
2022/06/03 02:07:57;;;;;;;6.10;4.60;;;;;;;25.07;51.73;101012.14;106805;1283;72712;-84
2022/06/03 02:10:41;;;;;;;6.60;4.80;;;;;;;25.07;51.76;101010.55;107214;1283;75640;-82
2022/06/03 02:13:35;;;;;;;6.60;4.80;;;;;;;25.07;51.75;101011.44;107234;1283;61119;-83
2022/06/03 02:16:52;;;;;;;6.70;5.00;;;;;;;25.06;51.65;101011.46;107250;1283;61100;-83
2022/06/03 02:19:36;;;;;;;6.30;4.60;;;;;;;25.06;51.64;101014.02;106240;1289;72575;-82
2022/06/03 02:22:28;;;;;;;7.10;4.90;;;;;;;25.07;51.67;101018.27;106222;1289;74538;-80
2022/06/03 02:25:18;;;;;;;6.50;4.60;;;;;;;25.06;51.70;101014.59;106267;1289;61465;-81
2022/06/03 02:28:12;;;;;;;7.40;4.70;;;;;;;25.06;51.59;101018.54;106162;1289;61297;-81
2022/06/03 02:31:08;;;;;;;7.80;5.00;;;;;;;25.06;51.60;101020.34;106242;1289;73540;-80
2022/06/03 02:33:46;;;;;;;6.60;4.90;;;;;;;25.05;51.67;101023.60;105851;1291;74670;-83
2022/06/03 02:36:11;;;;;;;6.00;4.60;;;;;;;25.06;51.57;101027.38;106237;1289;61140;-82
2022/06/03 02:39:19;;;;;;;6.90;4.40;;;;;;;25.06;51.64;101036.19;106271;1289;61346;-83
2022/06/03 02:42:29;;;;;;;6.70;4.90;;;;;;;25.05;51.62;101041.10;105903;1288;74213;-81
2022/06/03 02:45:19;;;;;;;6.50;4.40;;;;;;;25.05;51.64;101045.08;105974;1289;75822;-83
2022/06/03 02:47:54;;;;;;;6.30;4.60;;;;;;;25.05;51.66;101048.10;106081;1288;61129;-84
2022/06/03 02:50:39;;;;;;;6.20;4.70;;;;;;;25.05;51.76;101054.05;106271;1289;61240;-82
2022/06/03 02:53:29;;;;;;;6.00;4.40;;;;;;;25.06;51.69;101053.81;106224;1290;72760;-82
2022/06/03 02:56:14;;;;;;;6.20;4.70;;;;;;;25.06;51.73;101052.57;106618;1284;74804;-83
2022/06/03 02:59:02;;;;;;;6.60;4.40;;;;;;;25.06;51.74;101049.13;107257;1283;61105;-82
2022/06/03 03:01:40;;;;;;;6.90;4.70;;;;;;;25.06;51.66;101057.60;107217;1283;61120;-81
2022/06/03 03:04:21;;;;;;;6.00;4.60;;;;;;;25.06;51.70;101063.89;107072;1283;72970;-81
2022/06/03 03:07:24;;;;;;;6.20;4.70;;;;;;;25.06;51.71;101070.59;107226;1283;74581;-81
2022/06/03 03:10:04;;;;;;;7.60;4.40;;;;;;;25.05;51.76;101075.11;107067;1283;61092;-81
2022/06/03 03:12:38;;;;;;;5.70;4.30;;;;;;;25.06;51.67;101078.67;107219;1283;61217;-81
2022/06/03 03:15:20;;;;;;;7.50;4.70;;;;;;;25.06;51.58;101079.58;107053;1282;71997;-81
2022/06/03 03:18:01;;;;;;;7.30;4.40;;;;;;;25.06;51.58;101082.65;106845;1283;75014;-81
2022/06/03 03:20:49;;;;;;;7.70;4.60;;;;;;;25.06;51.66;101087.13;107171;1283;61406;-81
2022/06/03 03:23:47;;;;;;;5.70;4.20;;;;;;;25.05;51.74;101089.52;106902;1283;61548;-81
2022/06/03 03:26:22;;;;;;;5.20;4.20;;;;;;;25.05;51.63;101094.20;107254;1283;71765;-82
2022/06/03 03:29:13;;;;;;;6.50;4.10;;;;;;;25.05;51.69;101097.08;106861;1283;74597;-82
2022/06/03 03:31:54;;;;;;;5.90;4.40;;;;;;;25.06;51.58;101101.53;107235;1283;61277;-82
2022/06/03 03:34:28;;;;;;;7.00;4.20;;;;;;;25.06;51.70;101100.77;107047;1283;61235;-82
2022/06/03 03:37:03;;;;;;;6.20;4.10;;;;;;;25.06;51.53;101100.77;106882;1283;73916;-84
2022/06/03 03:39:47;;;;;;;7.00;4.30;;;;;;;25.07;51.69;101108.11;106839;1284;74654;-81
2022/06/03 03:42:40;;;;;;;5.70;4.20;;;;;;;25.07;51.66;101111.73;106853;1283;61161;-82
2022/06/03 03:45:24;;;;;;;6.10;4.20;;;;;;;25.06;51.81;101112.10;106623;1284;61368;-81
2022/06/03 03:48:08;;;;;;;5.30;3.70;;;;;;;25.07;51.56;101117.32;106832;1284;72725;-83
2022/06/03 03:50:46;;;;;;;5.70;4.00;;;;;;;25.05;51.64;101120.67;107209;1283;75641;-84
2022/06/03 03:53:29;;;;;;;7.70;4.10;;;;;;;25.02;51.28;101123.33;107004;1283;61243;-84
2022/06/03 03:56:05;;;;;;;6.40;3.70;;;;;;;24.97;50.96;101129.85;107229;1283;61599;-83
2022/06/03 03:58:40;;;;;;;8.80;3.60;;;;;;;24.95;50.93;101134.64;107171;1283;73637;-82
2022/06/03 04:01:24;;;;;;;5.50;3.30;;;;;;;24.94;50.70;101140.56;107197;1283;74512;-83
2022/06/03 04:04:08;;;;;;;8.80;3.60;;;;;;;24.88;50.46;101145.29;106799;1284;61284;-83
2022/06/03 04:06:42;;;;;;;5.30;3.30;;;;;;;24.86;50.38;101152.14;106692;1284;61189;-83
2022/06/03 04:09:38;;;;;;;5.20;3.40;;;;;;;24.86;50.19;101152.84;107019;1283;73767;-82
2022/06/03 04:12:32;;;;;;;8.00;3.40;;;;;;;24.85;50.05;101155.48;106940;1283;75900;-82
2022/06/03 04:15:35;;;;;;;6.90;4.00;;;;;;;24.79;49.71;101153.30;107117;1283;61243;-82
2022/06/03 04:18:23;;;;;;;4.90;3.40;;;;;;;24.78;49.48;101161.86;107030;1283;61130;-85
2022/06/03 04:21:23;;;;;;;5.90;3.50;;;;;;;24.76;49.47;101165.73;106809;1284;73969;-82
2022/06/03 04:23:57;;;;;;;7.90;3.70;;;;;;;24.78;49.34;101165.80;107186;1283;75665;-82
2022/06/03 04:26:46;;;;;;;5.50;3.60;;;;;;;24.80;49.28;101160.77;107015;1282;61406;-82
2022/06/03 04:29:49;;;;;;;6.50;3.80;;;;;;;24.82;49.40;101163.98;107072;1283;61430;-82
2022/06/03 04:32:33;;;;;;;9.10;3.50;;;;;;;24.82;49.05;101174.27;107027;1283;73856;-82
2022/06/03 04:35:37;;;;;;;6.00;3.90;;;;;;;24.82;48.87;101181.09;106659;1284;74703;-81
2022/06/03 04:38:09;;;;;;;9.90;3.30;;;;;;;24.78;48.70;101182.92;106984;1283;61120;-81
2022/06/03 04:40:59;;;;;;;8.80;3.50;;;;;;;24.76;48.35;101185.73;106997;1283;62207;-80
2022/06/03 04:43:43;;;;;;;8.40;3.90;;;;;;;24.74;48.28;101190.05;106944;1284;72734;-83
2022/06/03 04:46:38;;;;;;;14.00;3.50;;;;;;;24.72;47.92;101197.39;106950;1284;75781;-82
2022/06/03 04:49:10;;;;;;;5.70;3.70;;;;;;;24.69;47.80;101209.54;106946;1283;61111;-80
2022/06/03 04:52:23;;;;;;;7.20;3.60;;;;;;;24.65;47.71;101210.73;106919;1282;61244;-80
2022/06/03 04:55:27;;;;;;;12.50;3.90;;;;;;;24.63;47.48;101212.48;106735;1283;73725;-82
2022/06/03 04:58:30;;;;;;;9.90;3.70;;;;;;;24.61;47.30;101201.85;106235;1289;75724;-82
2022/06/03 05:01:28;;;;;;;7.30;3.40;;;;;;;24.55;47.05;101196.35;106111;1289;59723;-80
2022/06/03 05:04:18;;;;;;;9.20;3.80;;;;;;;24.55;46.95;101197.77;105716;1290;61502;-81
2022/06/03 05:07:05;;;;;;;10.90;3.60;;;;;;;24.55;46.91;101200.50;106088;1289;74252;-80
2022/06/03 05:10:08;;;;;;;7.20;3.80;;;;;;;24.60;46.82;101201.38;106152;1290;73547;-81
2022/06/03 05:12:55;;;;;;;9.40;3.80;;;;;;;24.65;46.72;101210.16;106111;1289;61742;-81
2022/06/03 05:15:58;;;;;;;10.20;3.80;;;;;;;24.70;46.98;101209.63;106102;1289;61315;-81
2022/06/03 05:18:44;;;;;;;10.80;3.60;;;;;;;24.77;47.08;101218.06;106068;1290;73887;-81
2022/06/03 05:21:43;;;;;;;8.30;3.60;;;;;;;24.83;47.34;101213.77;106152;1289;75043;-80
2022/06/03 05:24:37;;;;;;;9.10;3.80;;;;;;;24.89;47.13;101208.42;106090;1289;61183;-81
2022/06/03 05:27:37;;;;;;;8.00;3.50;;;;;;;24.93;47.35;101208.46;106178;1288;61221;-80
2022/06/03 05:30:17;;;;;;;9.00;3.70;;;;;;;24.96;47.34;101205.38;106163;1288;72910;-80
2022/06/03 05:32:53;;;;;;;7.50;3.40;;;;;;;24.98;47.23;101208.27;106084;1289;75759;-82
2022/06/03 05:35:25;;;;;;;7.40;3.50;;;;;;;25.01;47.10;101209.61;107125;1284;61452;-81
2022/06/03 05:37:59;;;;;;;9.00;3.50;;;;;;;25.04;46.88;101210.83;106930;1283;61592;-80
2022/06/03 05:40:34;;;;;;;6.70;3.60;;;;;;;25.05;46.62;101220.48;106935;1283;72707;-80
2022/06/03 05:43:16;;;;;;;9.50;3.80;;;;;;;25.03;46.43;101221.86;106907;1283;74063;-83
2022/06/03 05:46:16;;;;;;;8.10;3.40;;;;;;;25.02;46.36;101223.23;106897;1282;62541;-81
2022/06/03 05:49:16;;;;;;;8.70;3.90;;;;;;;25.01;46.21;101223.86;106862;1283;60608;-80
2022/06/03 05:51:53;;;;;;;9.70;3.80;;;;;;;25.03;46.31;101222.76;105937;1289;73996;-80
2022/06/03 05:54:31;;;;;;;10.70;4.00;;;;;;;25.06;46.17;101226.16;106055;1288;74797;-79
2022/06/03 05:57:12;;;;;;;8.60;3.90;;;;;;;25.07;46.13;101231.99;105437;1289;61217;-80
2022/06/03 05:59:56;;;;;;;10.20;4.10;;;;;;;25.08;46.08;101235.17;105643;1288;61401;-79
2022/06/03 06:02:49;;;;;;;14.20;4.30;;;;;;;25.10;46.01;101230.48;106177;1289;72702;-79
2022/06/03 06:05:33;;;;;;;17.30;5.80;;;;;;;25.13;45.89;101228.30;106225;1289;73681;-80
2022/06/03 06:08:25;;;;;;;10.30;4.20;;;;;;;25.15;46.03;101232.96;106067;1289;61174;-83
2022/06/03 06:11:07;;;;;;;8.80;4.30;;;;;;;25.18;45.90;101237.42;106178;1288;61021;-80
2022/06/03 06:13:45;;;;;;;9.50;4.10;;;;;;;25.19;45.87;101236.39;105827;1289;288305;-80
2022/06/03 06:16:14;;;;;;;7.00;4.00;;;;;;;25.19;45.80;101234.99;106144;1288;74818;-81
2022/06/03 06:18:48;;;;;;;8.10;3.90;;;;;;;25.19;45.75;101232.63;106315;1289;60368;-79
2022/06/03 06:21:43;;;;;;;9.40;4.10;;;;;;;25.21;45.61;101234.98;106065;1289;61235;-81
2022/06/03 06:24:17;;;;;;;14.50;4.20;;;;;;;25.22;45.49;101235.77;105389;1293;71813;-81
2022/06/03 06:27:21;;;;;;;8.30;4.50;;;;;;;25.24;45.58;101236.39;105467;1293;74472;-79
2022/06/03 06:30:19;;;;;;;10.00;4.40;;;;;;;25.24;45.75;101242.12;105990;1289;61224;-80
2022/06/03 06:33:13;;;;;;;9.10;3.90;;;;;;;25.25;45.55;101239.39;106018;1289;61072;-80
2022/06/03 06:36:03;;;;;;;10.70;4.20;;;;;;;25.25;45.50;101241.34;105821;1289;72232;-80
2022/06/03 06:38:44;;;;;;;8.20;4.00;;;;;;;25.25;45.43;101243.33;106051;1289;75749;-82
2022/06/03 06:41:35;;;;;;;9.70;4.10;;;;;;;25.25;45.55;101236.80;106087;1289;60506;-80
2022/06/03 06:44:24;;;;;;;7.30;4.00;;;;;;;25.27;45.44;101237.77;106047;1290;61662;-80
2022/06/03 06:46:50;;;;;;;9.40;3.80;;;;;;;25.28;45.34;101243.44;106039;1289;73137;-82
2022/06/03 06:49:30;;;;;;;6.30;4.10;;;;;;;25.28;45.24;101244.55;105973;1289;61471;-81
2022/06/03 06:51:56;;;;;;;5.50;3.90;;;;;;;25.29;45.03;101243.00;106029;1289;61560;-80
2022/06/03 06:54:25;;;;;;;10.50;4.30;;;;;;;25.30;45.17;101240.95;106107;1289;61056;-81
2022/06/03 06:57:19;;;;;;;10.00;4.70;;;;;;;25.31;45.06;101244.69;106100;1289;72725;-81
2022/06/03 06:59:48;;;;;;;8.50;4.20;;;;;;;25.29;44.93;101243.39;106694;1289;76259;-81
2022/06/03 07:02:20;;;;;;;10.00;4.30;;;;;;;25.28;44.81;101242.55;106720;1283;61035;-82
2022/06/03 07:04:53;;;;;;;12.90;4.10;;;;;;;25.28;44.92;101247.42;106358;1282;60259;-83
2022/06/03 07:07:24;;;;;;;7.80;4.20;;;;;;;25.27;44.86;101250.52;106773;1283;72915;-80
2022/06/03 07:10:19;;;;;;;8.70;4.20;;;;;;;25.26;44.78;101250.23;107217;1283;74565;-80
2022/06/03 07:13:05;;;;;;;7.80;3.80;;;;;;;25.27;44.94;101248.58;107561;1282;59512;-81
2022/06/03 07:15:53;;;;;;;8.90;4.20;;;;;;;25.28;44.86;101252.09;107647;1283;58757;-81
2022/06/03 07:21:25;;;;;;;8.80;3.90;;;;;;;25.30;44.73;101262.58;106579;1282;75758;-79
2022/06/03 07:23:52;;;;;;;11.40;4.40;;;;;;;25.31;44.51;101263.23;106512;1283;61415;-81
2022/06/03 07:26:33;;;;;;;9.70;4.00;;;;;;;25.29;44.36;101265.18;106753;1283;60289;-82
2022/06/03 07:29:39;;;;;;;8.60;4.00;;;;;;;25.29;44.36;101264.46;106643;1283;72759;-82
2022/06/03 07:32:11;;;;;;;11.30;4.30;;;;;;;25.30;44.19;101260.55;106637;1283;74730;-81
2022/06/03 07:34:52;;;;;;;10.30;4.60;;;;;;;25.33;44.46;101271.73;106616;1283;61185;-80
2022/06/03 07:37:22;;;;;;;14.30;4.40;;;;;;;25.33;44.55;101266.80;106636;1283;61354;-81
2022/06/03 07:40:06;;;;;;;17.10;4.90;;;;;;;25.35;44.63;101263.77;106443;1284;72762;-80
2022/06/03 07:42:48;;;;;;;13.60;4.50;;;;;;;25.37;44.62;101267.41;106388;1283;75470;-79
2022/06/03 07:45:51;;;;;;;8.80;4.10;;;;;;;25.38;44.87;101268.91;106897;1283;61274;-80
2022/06/03 07:48:21;;;;;;;10.70;4.50;;;;;;;25.39;45.00;101273.92;106788;1282;61073;-79
2022/06/03 07:50:58;;;;;;;10.60;4.20;;;;;;;25.40;44.84;101280.69;106776;1283;72909;-80
2022/06/03 07:53:35;;;;;;;7.00;4.20;;;;;;;25.41;44.87;101280.63;106922;1282;74626;-81
2022/06/03 07:56:01;;;;;;;6.40;4.00;;;;;;;25.42;44.65;101282.87;105756;1284;60339;-80
2022/06/03 07:58:29;;;;;;;10.70;4.20;;;;;;;25.42;44.74;101280.66;106216;1283;61474;-80
2022/06/03 08:00:55;;;;;;;8.60;4.40;;;;;;;25.44;44.73;101282.89;106478;1286;72759;-80
2022/06/03 08:03:25;;;;;;;11.30;5.20;;;;;;;25.44;44.64;101287.38;106601;1283;60787;-82
2022/06/03 08:06:00;;;;;;;5.50;3.90;;;;;;;25.46;44.91;101285.08;106394;1284;60238;-80
2022/06/03 08:11:18;;;;;;;6.60;4.20;;;;;;;25.46;44.93;101280.17;106306;1283;72713;-80
2022/06/03 08:13:49;;;;;;;6.50;4.10;;;;;;;25.46;44.87;101277.27;106906;1283;76069;-80
2022/06/03 08:16:44;;;;;;;11.30;4.10;;;;;;;25.47;44.61;101287.02;106915;1283;61167;-80
2022/06/03 08:19:17;;;;;;;14.50;4.50;;;;;;;25.46;44.37;101289.02;106220;1288;61606;-80
2022/06/03 08:21:46;;;;;;;5.40;3.80;;;;;;;25.46;44.41;101285.97;105989;1288;72253;-80
2022/06/03 08:24:16;;;;;;;8.70;3.90;;;;;;;25.46;44.20;101287.63;106453;1288;75821;-80
2022/06/03 08:26:43;;;;;;;7.30;3.70;;;;;;;25.46;44.11;101283.10;106312;1289;60360;-80
2022/06/03 08:29:17;;;;;;;9.90;4.10;;;;;;;25.46;44.11;101285.05;105849;1289;61210;-81
2022/06/03 08:31:42;;;;;;;11.30;4.20;;;;;;;25.47;44.16;101282.61;106021;1289;73758;-80
2022/06/03 08:34:13;;;;;;;13.40;3.70;;;;;;;25.49;43.75;101284.13;105860;1289;61333;-79
2022/06/03 08:36:39;;;;;;;7.60;4.00;;;;;;;25.49;43.79;101281.77;106026;1289;60197;-80
2022/06/03 08:39:16;;;;;;;10.90;4.00;;;;;;;25.49;43.75;101283.03;106003;1289;61103;-80
2022/06/03 08:41:51;;;;;;;12.00;4.00;;;;;;;25.50;43.82;101282.27;106851;1289;72825;-80
2022/06/03 08:45:03;;;;;;;7.70;4.20;;;;;;;25.50;43.77;101279.72;106952;1289;65761;-80
2022/06/03 08:47:34;;;;;;;7.40;3.90;;;;;;;25.50;43.61;101272.83;106593;1288;59353;-81
2022/06/03 08:50:11;;;;;;;11.40;3.80;;;;;;;25.52;43.55;101274.11;106978;1288;59430;-81
2022/06/03 08:52:56;;;;;;;8.50;4.00;;;;;;;25.54;43.59;101279.16;106774;1289;64286;-81
2022/06/03 08:55:38;;;;;;;10.20;3.80;;;;;;;25.55;43.66;101281.25;107086;1284;67118;-81
2022/06/03 08:58:12;;;;;;;13.00;3.80;;;;;;;25.57;43.48;101279.77;106668;1283;61135;-80
2022/06/03 09:00:52;;;;;;;16.80;4.00;;;;;;;25.61;43.56;101278.04;106340;1284;60525;-80
2022/06/03 09:03:19;;;;;;;7.40;3.70;;;;;;;25.62;43.42;101277.66;106781;1283;72824;-81
2022/06/03 09:05:49;;;;;;;10.60;3.90;;;;;;;25.62;43.25;101274.73;107011;1285;74758;-80
2022/06/03 09:08:29;;;;;;;6.70;3.60;;;;;;;25.62;43.15;101279.79;106758;1283;60452;-80
2022/06/03 09:11:04;;;;;;;6.50;3.80;;;;;;;25.63;43.22;101279.36;107416;1284;60316;-81
2022/06/03 09:13:55;;;;;;;9.20;4.30;;;;;;;25.63;43.37;101276.32;106677;1283;63766;-81
2022/06/03 09:16:21;;;;;;;13.90;4.00;;;;;;;25.63;43.43;101273.58;106121;1289;75728;-81
2022/06/03 09:18:51;;;;;;;8.00;4.00;;;;;;;25.64;43.31;101274.05;106123;1289;61375;-81
2022/06/03 09:21:23;;;;;;;11.50;4.10;;;;;;;25.66;43.43;101275.08;106445;1289;61218;-81
2022/06/03 09:23:52;;;;;;;7.00;3.80;;;;;;;25.67;43.35;101271.95;106180;1288;72699;-80
2022/06/03 09:26:31;;;;;;;5.30;3.60;;;;;;;25.67;43.26;101274.36;106122;1289;76082;-80
2022/06/03 09:28:58;;;;;;;6.00;3.50;;;;;;;25.65;43.49;101269.61;107026;1289;61863;-80
2022/06/03 09:31:24;;;;;;;9.60;3.70;;;;;;;25.65;43.48;101274.86;105879;1289;61479;-80
2022/06/03 09:33:49;;;;;;;8.90;4.30;;;;;;;25.64;43.60;101270.39;105786;1289;61239;-80
2022/06/03 09:36:18;;;;;;;8.70;4.30;;;;;;;25.64;43.59;101263.77;105812;1289;59740;-80
2022/06/03 09:38:48;;;;;;;11.20;4.30;;;;;;;25.64;43.54;101265.06;107090;1288;58966;-81
2022/06/03 09:41:14;;;;;;;8.40;4.00;;;;;;;25.63;43.71;101261.52;105809;1289;63084;-80
2022/06/03 09:43:43;;;;;;;6.60;4.10;;;;;;;25.62;43.71;101253.84;106185;1288;61315;-80
2022/06/03 09:46:11;;;;;;;;;;;;;;;25.61;43.81;101256.59;105978;1289;75528;-81
2022/06/03 09:48:37;;;;;;;7.90;4.20;;;;;;;25.58;43.98;101258.62;106186;1289;61150;-80
2022/06/03 09:51:20;;;;;;;9.30;4.00;;;;;;;25.58;43.86;101257.19;105812;1289;61287;-80
2022/06/03 09:53:46;;;;;;;7.30;3.90;;;;;;;25.58;43.96;101261.02;106169;1284;71630;-80
2022/06/03 09:56:30;;;;;;;10.30;4.00;;;;;;;25.56;44.02;101259.30;107005;1283;61274;-81
2022/06/03 09:58:58;;;;;;;8.00;4.10;;;;;;;25.56;44.04;101263.70;106626;1283;61280;-80
2022/06/03 10:01:24;;;;;;;11.90;4.10;;;;;;;25.55;44.01;101267.35;106841;1283;61667;-81
2022/06/03 10:03:51;;;;;;;7.10;4.10;;;;;;;25.54;44.25;101276.41;106640;1283;61385;-81
2022/06/03 10:14:30;;;;;;;8.40;4.20;;;;;;;25.52;44.15;101266.53;106853;1283;72743;-83
2022/06/03 10:16:56;;;;;;;9.50;4.10;;;;;;;25.52;44.32;101261.70;106707;1283;61286;-83
2022/06/03 10:19:21;;;;;;;8.40;4.20;;;;;;;25.51;44.35;101264.09;106698;1283;61384;-80
2022/06/03 10:21:52;;;;;;;7.00;4.10;;;;;;;25.51;44.39;101263.23;106923;1283;61179;-80
2022/06/03 10:24:18;;;;;;;7.60;4.10;;;;;;;25.52;44.50;101253.42;106888;1282;71613;-81
2022/06/03 10:26:51;;;;;;;6.60;4.20;;;;;;;25.51;44.61;101248.78;106491;1283;61415;-81
2022/06/03 10:29:20;;;;;;;5.80;3.90;;;;;;;25.51;44.60;101249.86;107070;1283;61148;-82
2022/06/03 10:31:51;;;;;;;10.60;4.30;;;;;;;25.51;44.66;101250.47;106783;1283;61132;-83
2022/06/03 10:34:21;;;;;;;6.20;4.10;;;;;;;25.51;44.68;101258.02;106887;1283;73096;-81
2022/06/03 10:36:48;;;;;;;8.20;4.10;;;;;;;25.50;44.75;101252.69;107150;1283;75531;-81
2022/06/03 10:39:15;;;;;;;7.20;4.10;;;;;;;25.50;44.75;101256.63;106705;1283;61125;-81
2022/06/03 10:41:43;;;;;;;6.70;4.40;;;;;;;25.49;44.88;101248.77;107147;1282;61461;-81
2022/06/03 10:44:13;;;;;;;7.10;4.40;;;;;;;25.49;44.92;101256.88;106550;1283;71636;-81
2022/06/03 10:46:58;;;;;;;6.60;4.40;;;;;;;25.49;44.82;101249.70;106931;1282;73528;-80
2022/06/03 10:49:25;;;;;;;11.10;4.30;;;;;;;25.48;45.03;101249.20;106899;1283;61190;-81
2022/06/03 11:02:54;;;;;;;7.80;4.00;;;;;;;25.47;45.16;101263.35;106398;1286;61255;-81
2022/06/03 11:05:28;;;;;;;6.80;4.10;;;;;;;25.47;45.11;101267.66;106399;1286;61601;-79
2022/06/03 11:08:03;;;;;;;7.70;4.50;;;;;;;25.48;45.11;101267.08;106249;1286;75973;-82
2022/06/03 11:10:31;;;;;;;7.00;4.70;;;;;;;25.48;44.98;101272.30;106409;1286;61433;-82
2022/06/03 11:13:01;;;;;;;8.80;5.10;;;;;;;25.48;45.07;101274.99;106300;1286;60353;-80
2022/06/03 11:15:33;;;;;;;9.90;4.40;;;;;;;25.48;45.15;101275.14;106313;1286;73081;-81
2022/06/03 11:18:00;;;;;;;6.70;3.90;;;;;;;25.48;45.10;101268.66;106319;1286;74599;-81
2022/06/03 11:20:37;;;;;;;8.70;5.00;;;;;;;25.48;45.23;101270.65;106447;1286;61382;-81
2022/06/03 11:23:03;;;;;;;6.10;4.40;;;;;;;25.48;45.14;101270.98;106389;1286;60529;-81
2022/06/03 11:25:30;;;;;;;8.00;4.90;;;;;;;25.49;45.06;101267.52;106304;1286;73569;-81
2022/06/03 11:28:11;;;;;;;7.40;4.50;;;;;;;25.49;45.27;101268.10;106499;1286;61414;-84
2022/06/03 11:30:44;;;;;;;7.30;4.40;;;;;;;25.49;45.18;101268.76;106465;1286;61292;-79
2022/06/03 11:33:21;;;;;;;8.00;5.30;;;;;;;25.49;45.21;101267.14;106469;1284;61158;-81
2022/06/03 11:35:52;;;;;;;8.50;5.90;;;;;;;25.50;45.27;101271.20;107156;1283;72147;-81
2022/06/03 11:38:29;;;;;;;7.40;5.30;;;;;;;25.50;45.23;101265.62;106821;1283;75785;-81
2022/06/03 11:40:55;;;;;;;9.20;5.30;;;;;;;25.51;45.33;101264.47;106873;1283;61788;-81
2022/06/03 11:43:24;;;;;;;8.10;4.90;;;;;;;25.51;45.22;101268.77;106972;1283;61360;-81
2022/06/03 11:45:57;;;;;;;8.90;5.20;;;;;;;25.51;45.36;101276.34;106562;1284;73800;-82
2022/06/03 11:48:33;;;;;;;7.40;5.30;;;;;;;25.51;45.37;101272.03;106758;1282;76187;-82
2022/06/03 11:50:59;;;;;;;6.90;5.30;;;;;;;25.52;45.39;101274.29;106851;1283;61464;-79
2022/06/03 11:53:27;;;;;;;8.10;5.40;;;;;;;25.53;45.54;101272.79;106818;1283;61235;-81
2022/06/03 11:55:53;;;;;;;8.00;5.40;;;;;;;25.53;45.41;101276.56;106739;1284;73086;-81
2022/06/03 11:58:20;;;;;;;8.80;5.60;;;;;;;25.53;45.49;101277.65;106321;1285;61397;-80
2022/06/03 12:00:56;;;;;;;8.20;5.10;;;;;;;25.53;45.52;101282.86;106753;1283;61616;-81
2022/06/03 12:03:45;;;;;;;9.30;5.40;;;;;;;25.53;45.55;101281.02;106815;1283;61523;-81
2022/06/03 12:06:14;;;;;;;9.30;5.20;;;;;;;25.55;45.49;101279.33;107120;1283;71732;-81
2022/06/03 12:08:49;;;;;;;8.90;5.30;;;;;;;25.55;45.60;101274.26;106859;1283;76950;-83
2022/06/03 12:14:35;;;;;;;9.30;5.40;;;;;;;25.55;45.50;101274.78;107228;1280;61334;-80
2022/06/03 12:17:26;;;;;;;6.50;5.30;;;;;;;25.55;45.57;101270.92;107234;1283;73721;-81
2022/06/03 12:19:53;;;;;;;7.40;5.50;;;;;;;25.55;45.48;101268.46;106881;1283;74609;-81
2022/06/03 12:22:31;;;;;;;7.20;5.50;;;;;;;25.56;45.69;101263.37;106484;1283;61046;-83
2022/06/03 12:25:40;;;;;;;9.50;5.60;;;;;;;25.56;45.47;101264.38;107178;1282;61154;-82
2022/06/03 12:28:08;;;;;;;8.50;5.00;;;;;;;25.56;45.61;101260.10;106299;1283;72904;-82
2022/06/03 12:30:47;;;;;;;8.20;5.30;;;;;;;25.56;45.48;101255.03;106878;1283;74396;-82
2022/06/03 12:33:27;;;;;;;;;;;;;;;25.56;45.65;101253.19;106595;1284;61239;-81
2022/06/03 12:36:04;;;;;;;9.10;5.10;;;;;;;25.55;45.62;101257.10;106899;1283;61362;-84
2022/06/03 12:38:45;;;;;;;7.10;5.30;;;;;;;25.56;45.75;101247.30;107010;1283;71807;-83
2022/06/03 12:41:10;;;;;;;7.30;5.20;;;;;;;25.56;45.66;101245.82;106915;1283;75156;-83
2022/06/03 12:43:45;;;;;;;7.80;5.10;;;;;;;25.56;45.71;101242.77;106893;1283;61282;-85
2022/06/03 12:46:35;;;;;;;9.30;5.50;;;;;;;25.56;45.73;101239.30;107204;1283;61158;-82